Latest Weather Observations for The Monument

IDQ60801

Issued at 8:32 pm EST Friday 19 December 2014 (issued every 30 minutes, with the page automatically refreshed every 10 minutes)

About weather observations | Map of weather stations | Latest weather observations for QLD | Other Formats
Station Details ID: 037034 Name: THE MONUMENT AIRPORT Lat: -21.81 Lon: 139.93 Height: 288.4 m
Data from the previous 72 hours. | See also: Recent months at The Monument
Date/Time
EST
Temp
°C
App
Temp
°C
Dew
Point
Rel
Hum
%
Delta-T
°C
Wind Press
QNH
hPa
Press
MSL
hPa
Rain
since 9 am
mm
Dir
 
Spd
km/h
Gust
km/h
Spd
kts
Gust
kts
19/08:30pm 31.9 29.1 10.0 26 12.6 SSE 15 22 8 12 1012.4 1010.2 0.0
19/08:00pm 32.2 29.9 10.3 26 12.7 SE 13 17 7 9 1011.9 1009.7 0.0
19/07:30pm 33.2 30.4 9.9 24 13.5 ESE 15 20 8 11 1011.4 1009.2 0.0
19/07:00pm 34.3 30.4 9.5 22 14.4 SE 20 28 11 15 1011.0 1008.8 0.0
19/06:30pm 34.6 31.4 9.8 22 14.4 ESE 17 24 9 13 1010.9 1008.7 0.0
19/06:00pm 35.2 31.2 10.3 22 14.7 SE 22 33 12 18 1010.8 1008.6 0.0
19/05:30pm 35.5 32.1 10.5 22 14.8 SE 19 28 10 15 1010.7 1008.5 0.0
19/05:00pm 35.8 33.0 11.4 23 14.6 SE 17 33 9 18 1010.8 1008.6 0.0
19/04:30pm 35.6 31.6 11.9 24 14.3 SE 24 37 13 20 1010.9 1008.7 0.0
19/04:00pm 35.3 31.8 12.3 25 14.0 SE 22 30 12 16 1011.2 1009.0 0.0
19/03:30pm 35.2 32.3 12.8 26 13.7 ESE 20 35 11 19 1011.6 1009.4 0.0
19/03:00pm 34.4 32.0 14.3 30 12.5 SE 20 33 11 18 1012.0 1009.8 0.0
19/02:30pm 34.2 30.8 14.7 31 12.2 SE 26 35 14 19 1012.4 1010.2 0.0
19/02:28pm 34.8 31.2 15.2 31 12.4 SE 28 46 15 25 1012.4 1010.2 0.0
19/02:00pm 34.5 32.1 14.4 30 12.5 SE 20 32 11 17 1012.7 1010.5 0.0
19/01:30pm 35.3 32.6 15.6 31 12.5 ESE 24 35 13 19 1012.9 1010.7 0.0
19/01:00pm 33.3 30.9 15.3 34 11.3 ESE 22 35 12 19 1013.7 1011.5 0.0
19/12:30pm 32.4 30.1 15.8 36 10.5 ESE 22 35 12 19 1014.2 1012.0 0.0
19/12:00pm 31.7 31.0 16.4 39 9.7 ESE 15 26 8 14 1014.6 1012.4 0.0
19/11:30am 30.9 29.9 15.7 39 9.5 SE 15 28 8 15 1014.9 1012.7 0.0
19/11:00am 30.2 30.4 17.6 46 8.1 SSE 13 20 7 11 1015.0 1012.8 0.0
19/10:30am 28.7 29.1 17.2 49 7.3 SE 11 19 6 10 1015.1 1012.9 0.0
19/10:00am 28.5 29.6 18.0 53 6.8 SE 9 19 5 10 1015.3 1013.1 0.0
19/09:30am 28.3 29.3 18.7 56 6.2 SE 11 15 6 8 1015.5 1013.3 0.0
19/09:00am 26.8 27.7 18.4 60 5.4 SE 11 17 6 9 1015.6 1013.4 0.2
19/08:30am 26.4 27.7 19.3 65 4.6 S 11 17 6 9 1015.5 1013.3 0.2
19/08:00am 25.1 27.3 19.7 72 3.5 S 7 11 4 6 1015.4 1013.2 0.2
19/07:30am 23.9 27.1 19.8 78 2.7 SSW 2 7 1 4 1014.9 1012.7 0.2
19/07:00am 22.8 25.2 20.0 84 1.8 SSW 7 9 4 5 1014.5 1012.3 0.2
19/06:30am 21.7 24.1 20.0 90 1.1 SSW 7 9 4 5 1014.0 1011.8 0.2
19/06:00am 20.9 22.8 19.7 93 0.8 SSW 9 11 5 6 1013.7 1011.5 0.2
19/05:30am 21.0 23.2 19.6 92 0.9 SSW 7 9 4 5 1013.4 1011.2 0.2
19/05:00am 21.0 24.1 19.5 91 1.0 S 2 6 1 3 1013.1 1010.8 0.2
19/04:30am 21.3 23.0 19.4 89 1.2 S 9 11 5 6 1012.8 1010.6 0.2
19/04:00am 21.3 23.5 19.2 88 1.3 SSE 6 9 3 5 1012.7 1010.5 0.2
19/03:30am 21.7 25.3 19.8 89 1.2 CALM 0 0 0 0 1012.7 1010.5 0.2
19/03:00am 21.8 25.3 19.5 87 1.5 CALM 0 0 0 0 1012.5 1010.3 0.2
19/02:30am 22.1 25.6 19.6 86 1.6 CALM 0 6 0 3 1012.7 1010.5 0.2
19/02:00am 22.2 24.6 19.6 85 1.7 NNE 6 9 3 5 1012.6 1010.4 0.2
19/01:30am 22.3 24.2 19.8 86 1.6 N 9 11 5 6 1012.7 1010.5 0.2
19/01:00am 22.4 24.6 19.6 84 1.8 NE 7 9 4 5 1013.1 1010.8 0.2
19/12:30am 22.5 24.8 19.5 83 1.9 NE 6 7 3 4 1013.6 1011.4 0.2
19/12:00am 22.9 24.8 19.7 82 2.1 NNE 9 13 5 7 1013.8 1011.6 0.2
 
Date/Time
EST
Temp
°C
App
Temp
°C
Dew
Point
Rel
Hum
%
Delta-T
°C
Wind Press
QNH
hPa
Press
MSL
hPa
Rain
since 9 am
mm
Dir
 
Spd
km/h
Gust
km/h
Spd
kts
Gust
kts
18/11:30pm 23.1 25.0 19.7 81 2.2 NE 9 11 5 6 1014.3 1012.1 0.2
18/11:00pm 23.5 24.8 19.4 78 2.7 ESE 11 17 6 9 1014.4 1012.2 0.2
18/10:30pm 23.8 24.9 19.7 78 2.7 ESE 13 20 7 11 1014.1 1011.9 0.2
18/10:00pm 23.9 25.2 19.4 76 2.9 SE 11 15 6 8 1014.2 1012.0 0.2
18/09:30pm 24.4 25.5 19.7 75 3.1 SE 13 19 7 10 1013.9 1011.7 0.2
18/09:00pm 24.7 25.0 19.5 73 3.4 ESE 17 20 9 11 1013.8 1011.6 0.2
18/08:30pm 25.0 25.3 19.6 72 3.5 ESE 17 22 9 12 1013.8 1011.6 0.2
18/08:00pm 25.4 25.7 19.5 70 3.8 SE 17 24 9 13 1013.5 1011.3 0.2
18/07:30pm 25.6 25.9 19.7 70 3.9 SE 17 22 9 12 1013.1 1010.8 0.2
18/07:00pm 25.8 25.9 19.2 67 4.3 SE 17 20 9 11 1012.6 1010.4 0.2
18/06:30pm 26.3 27.0 19.7 67 4.3 SE 15 20 8 11 1011.8 1009.6 0.2
18/06:00pm 26.3 26.0 19.2 65 4.6 SSE 19 24 10 13 1011.5 1009.3 0.2
18/05:30pm 26.4 25.8 18.8 63 4.9 SSE 20 26 11 14 1011.7 1009.5 0.2
18/05:00pm 26.2 25.8 19.3 65 4.5 SSE 20 26 11 14 1011.6 1009.4 0.2
18/04:30pm 26.3 25.8 19.2 65 4.6 SSE 20 28 11 15 1012.1 1009.9 0.2
18/04:00pm 26.1 24.9 19.2 65 4.5 SSE 24 32 13 17 1012.5 1010.3 0.2
18/03:30pm 26.4 25.5 19.0 63 4.8 SSE 22 30 12 16 1012.8 1010.6 0.2
18/03:00pm 26.9 25.4 18.5 60 5.4 SSE 24 35 13 19 1013.4 1011.2 0.2
18/02:30pm 26.6 24.8 19.5 65 4.6 SSE 28 35 15 19 1014.0 1011.8 0.2
18/02:00pm 25.9 24.3 19.1 66 4.4 S 26 37 14 20 1014.4 1012.2 0.2
18/01:30pm 25.0 22.8 18.7 68 4.1 S 28 41 15 22 1014.7 1012.5 0.2
18/01:00pm 24.5 21.9 18.7 70 3.7 SSW 30 39 16 21 1015.0 1012.8 0.0
18/12:30pm 24.4 21.3 17.4 65 4.4 SSW 30 41 16 22 1015.4 1013.2 0.0
18/12:00pm 23.6 24.9 19.3 77 2.8 N 11 24 6 13 1015.6 1013.4 0.0
18/11:51am 23.6 23.3 19.5 78 2.7 SW 20 35 11 19 1016.3 1014.2 0.0
18/11:39am 23.7 21.5 19.6 78 2.7 SSW 30 48 16 26 1014.2 1012.0 0.0
18/11:30am 23.6 21.0 19.5 78 2.7 SSW 32 44 17 24 1014.0 1011.8 0.0
18/11:00am 23.6 20.8 19.1 76 2.9 SSW 32 43 17 23 1014.0 1011.8 0.0
18/10:30am 23.9 19.0 18.1 70 3.7 SW 41 59 22 32 1013.8 1011.6 0.0
18/10:08am 25.4 22.5 20.0 72 3.5 WSW 35 54 19 29 1013.7 1011.5 0.0
18/10:00am 26.3 25.3 21.3 74 3.4 WSW 28 39 15 21 1013.6 1011.4 0.0
18/09:30am 26.7 28.6 22.8 79 2.7 SSW 17 22 9 12 1011.8 1009.6 0.0
18/09:00am 28.7 31.1 21.5 65 4.9 S 11 17 6 9 1011.3 1009.1 9.6
18/08:30am 29.1 30.0 20.8 61 5.6 S 17 22 9 12 1010.7 1008.5 9.6
18/08:00am 29.4 31.6 21.9 64 5.1 S 13 19 7 10 1010.5 1008.3 9.4
18/07:30am 29.2 34.4 22.9 69 4.3 CALM 0 0 0 0 1009.9 1007.6 9.4
18/07:00am 29.3 32.9 22.3 66 4.8 W 7 7 4 4 1009.2 1007.0 9.4
18/06:30am 29.1 31.8 21.3 62 5.3 NNW 9 9 5 5 1008.8 1006.6 9.4
18/06:00am 28.5 31.8 21.8 67 4.6 NNW 7 9 4 5 1008.4 1006.2 9.4
18/05:30am 29.0 31.9 20.7 61 5.6 NE 6 9 3 5 1008.0 1005.8 9.4
18/05:00am 29.4 31.4 20.0 57 6.3 ENE 9 13 5 7 1007.6 1005.4 9.4
18/04:30am 29.5 31.1 19.2 54 6.8 S 9 13 5 7 1007.3 1005.1 9.4
18/04:00am 30.9 31.8 19.3 50 7.7 N 13 20 7 11 1006.7 1004.4 9.4
18/03:30am 30.1 30.0 18.8 50 7.4 NNE 17 20 9 11 1006.3 1004.0 9.4
18/03:00am 29.3 30.5 19.0 53 6.8 N 11 15 6 8 1006.4 1004.1 9.4
18/02:30am 29.2 29.3 19.2 54 6.6 NNE 17 22 9 12 1006.6 1004.3 9.4
18/02:00am 29.1 30.5 20.3 59 5.9 N 13 19 7 10 1006.9 1004.7 9.4
18/01:30am 29.3 32.3 22.0 64 5.0 NNW 9 13 5 7 1007.1 1004.9 9.4
18/01:00am 29.2 33.7 23.6 72 3.9 N 6 11 3 6 1007.2 1005.0 9.4
18/12:30am 29.9 34.7 22.1 63 5.3 CALM 0 6 0 3 1007.5 1005.3 9.4
18/12:00am 29.5 33.3 22.7 67 4.7 SW 7 9 4 5 1007.8 1005.6 9.4
 
Date/Time
EST
Temp
°C
App
Temp
°C
Dew
Point
Rel
Hum
%
Delta-T
°C
Wind Press
QNH
hPa
Press
MSL
hPa
Rain
since 9 am
mm
Dir
 
Spd
km/h
Gust
km/h
Spd
kts
Gust
kts
17/11:30pm 29.1 33.2 20.8 61 5.6 CALM 0 6 0 3 1008.0 1005.8 9.4
17/11:00pm 29.8 32.6 20.4 57 6.3 S 6 11 3 6 1008.0 1005.8 9.4
17/10:30pm 29.5 30.8 19.2 54 6.8 SW 11 17 6 9 1007.9 1005.7 9.4
17/10:12pm 28.9 25.8 17.4 49 7.3 W 30 65 16 35 1008.1 1005.9 5.2
17/10:00pm 31.1 30.4 17.4 44 8.8 WSW 17 30 9 16 1008.0 1005.8 4.0
17/09:30pm 31.0 31.3 18.7 48 8.1 S 15 44 8 24 1008.1 1005.9 2.0
17/09:00pm 30.5 31.8 19.2 51 7.5 ENE 11 22 6 12 1007.9 1005.7 1.2
17/08:30pm 33.6 32.8 16.0 34 11.2 WSW 15 22 8 12 1007.5 1005.3 0.0
17/08:00pm 33.4 32.7 16.3 36 10.9 SSW 15 20 8 11 1006.9 1004.7 0.0
17/07:30pm 33.3 29.3 15.3 34 11.3 SSW 30 44 16 24 1006.2 1003.9 0.0
17/07:00pm 31.0 26.2 16.6 42 9.2 SSW 37 56 20 30 1006.8 1004.5 0.0
17/06:30pm 32.3 28.7 18.5 44 9.0 SSW 35 50 19 27 1006.5 1004.2 0.0
17/06:05pm 33.3 30.9 18.3 41 9.8 SSE 28 46 15 25 1004.9 1002.7 0.0
17/06:00pm 32.5 29.2 18.3 43 9.3 SSE 33 46 18 25 1004.6 1002.4 0.0
17/05:47pm 34.7 31.4 17.0 35 11.4 SSW 30 44 16 24 1004.7 1002.5 0.0
17/05:30pm 39.8 37.6 14.8 23 15.9 WNW 20 32 11 17 1004.1 1001.9 0.0
17/05:00pm 40.9 38.1 14.2 20 17.0 NW 22 32 12 17 1003.7 1001.5 0.0
17/04:30pm 40.4 37.8 13.1 20 17.0 WNW 19 32 10 17 1004.0 1001.8 0.0
17/04:00pm 41.7 39.4 14.1 19 17.6 W 19 28 10 15 1004.1 1001.9 0.0
17/03:30pm 41.4 38.6 13.1 19 17.7 W 20 32 11 17 1004.8 1002.6 0.0
17/03:00pm 40.8 37.3 13.4 20 17.2 WNW 24 32 13 17 1005.3 1003.1 0.0
17/02:30pm 40.7 37.6 13.3 20 17.2 NW 22 33 12 18 1005.6 1003.4 0.0
17/02:00pm 40.7 38.1 14.8 22 16.6 W 22 39 12 21 1006.2 1003.9 0.0
17/01:30pm 39.6 36.7 13.9 22 16.2 WSW 22 37 12 20 1006.6 1004.3 0.0
17/01:00pm 40.7 38.0 15.5 23 16.3 W 24 39 13 21 1007.1 1004.9 0.0
17/12:30pm 39.7 36.5 15.3 23 15.7 W 26 41 14 22 1007.4 1005.2 0.0
17/12:00pm 38.7 34.4 14.5 24 15.3 W 30 41 16 22 1007.9 1005.7 0.0
17/11:30am 38.0 34.1 14.5 24 14.8 WNW 28 41 15 22 1008.1 1005.9 0.0
17/11:00am 38.0 34.8 15.2 26 14.6 WNW 26 39 14 21 1008.5 1006.3 0.0
17/10:30am 36.9 33.5 15.9 28 13.5 W 28 37 15 20 1008.6 1006.4 0.0
17/10:00am 35.6 32.6 15.9 31 12.6 WNW 26 35 14 19 1008.8 1006.6 0.0
17/09:30am 35.0 32.0 15.8 31 12.2 WNW 26 35 14 19 1008.8 1006.6 0.0
17/09:00am 35.0 32.4 15.8 31 12.2 WNW 24 33 13 18 1008.6 1006.4 0.0
17/08:30am 34.8 31.5 16.1 32 11.9 NW 28 35 15 19 1008.4 1006.2 0.0
17/08:00am 34.3 30.1 15.7 32 11.8 NW 32 41 17 22 1008.2 1006.0 0.0
17/07:30am 33.2 30.1 15.7 35 11.1 NW 26 33 14 18 1008.1 1005.9 0.0
17/07:00am 33.3 30.8 16.2 36 10.9 NW 24 32 13 17 1007.6 1005.4 0.0
17/06:30am 32.9 31.4 16.7 38 10.4 NW 20 28 11 15 1007.1 1004.9 0.0
17/06:00am 32.7 30.9 16.1 37 10.6 NW 20 26 11 14 1006.6 1004.3 0.0
17/05:30am 33.2 31.3 15.2 33 11.3 NW 19 24 10 13 1006.2 1003.9 0.0
17/05:00am 33.8 31.4 12.7 27 12.8 NW 17 24 9 13 1005.6 1003.4 0.0
17/04:30am 32.2 29.9 12.9 31 11.7 N 17 24 9 13 1005.3 1003.1 0.0
17/04:00am 32.9 31.4 12.0 28 12.5 NE 11 17 6 9 1005.1 1002.9 0.0
17/03:30am 32.9 31.5 10.9 26 12.9 ENE 9 11 5 6 1005.0 1002.8 0.0
17/03:00am 33.3 30.3 9.4 23 13.8 E 15 17 8 9 1005.0 1002.8 0.0
17/02:30am 33.2 31.4 9.3 23 13.7 ESE 9 15 5 8 1005.0 1002.8 0.0
17/02:00am 33.4 30.5 8.1 21 14.3 SSE 13 15 7 8 1005.1 1002.9 0.0
17/01:30am 34.3 31.2 7.4 19 15.1 SE 13 17 7 9 1005.1 1002.9 0.0
17/01:00am 34.7 31.3 7.7 19 15.3 SE 15 17 8 9 1005.4 1003.2 0.0
17/12:30am 35.1 32.0 7.2 18 15.6 SE 13 17 7 9 1005.9 1003.6 0.0
17/12:00am 36.1 33.0 7.2 17 16.3 SSE 13 19 7 10 1006.1 1003.8 0.0
 
Date/Time
EST
Temp
°C
App
Temp
°C
Dew
Point
Rel
Hum
%
Delta-T
°C
Wind Press
QNH
hPa
Press
MSL
hPa
Rain
since 9 am
mm
Dir
 
Spd
km/h
Gust
km/h
Spd
kts
Gust
kts
16/11:30pm 37.4 32.0 6.4 15 17.4 SSW 24 41 13 22 1006.2 1003.9 0.0
16/11:00pm 37.7 32.2 9.3 18 16.7 SSW 28 39 15 21 1006.0 1003.7 0.0
16/10:30pm 37.0 35.8 10.3 20 15.8 N 7 9 4 5 1005.2 1003.0 0.0
16/10:00pm 37.7 35.1 9.3 18 16.7 N 13 17 7 9 1005.3 1003.1 0.0
16/09:30pm 38.4 32.7 9.9 18 16.9 NNW 30 52 16 28 1005.5 1003.3 0.0
16/09:28pm 38.6 33.0 10.0 18 17.0 NW 30 52 16 28 1005.6 1003.4 0.0
16/09:25pm 38.8 34.1 9.4 17 17.3 NW 24 52 13 28 1005.4 1003.2 0.0
16/09:00pm 38.0 35.7 10.4 19 16.5 SE 13 20 7 11 1005.2 1003.0 0.0

Other Formats:

Comma delimited format used in spreadsheet applications
http://www.bom.gov.au/fwo/IDQ60801/IDQ60801.94336.axf

JavaScript Object Notation format (JSON) in row-major order
http://www.bom.gov.au/fwo/IDQ60801/IDQ60801.94336.json